Latest Weather Observations for Fort Denison

IDN60801

Issued at 5:05 pm EST Tuesday 22 July 2014 (issued every 30 minutes, with the page automatically refreshed every 10 minutes)

About weather observations | Map of weather stations | Latest weather observations for NSW | Other Formats
Station Details ID: 066022 Name: FORT DENISON Lat: -33.86 Lon: 151.23 Height: 5.0 m
Data from the previous 72 hours. | See also: Recent months for locations in New South Wales
Date/Time
EST
Temp
°C
App
Temp
°C
Dew
Point
Rel
Hum
%
Delta-T
°C
Wind Press
QNH
hPa
Press
MSL
hPa
Rain
since 9 am
mm
Dir
 
Spd
km/h
Gust
km/h
Spd
kts
Gust
kts
22/05:00pm - - - - - SE 11 19 6 10 - - -
22/04:30pm - - - - - SE 13 19 7 10 - - -
22/04:00pm - - - - - ESE 13 17 7 9 - - -
22/03:30pm - - - - - SE 11 17 6 9 - - -
22/03:00pm - - - - - SE 11 17 6 9 - - -
22/02:30pm - - - - - ESE 11 15 6 8 - - -
22/02:00pm - - - - - ESE 11 17 6 9 - - -
22/01:30pm - - - - - ESE 11 17 6 9 - - -
22/01:00pm - - - - - E 7 11 4 6 - - -
22/12:30pm - - - - - NNW 2 4 1 2 - - -
22/12:00pm - - - - - WNW 9 13 5 7 - - -
22/11:30am - - - - - WNW 11 13 6 7 - - -
22/11:00am - - - - - WNW 9 13 5 7 - - -
22/10:30am - - - - - WNW 13 15 7 8 - - -
22/10:00am - - - - - WNW 13 19 7 10 - - -
22/09:30am - - - - - W 17 19 9 10 - - -
22/09:00am - - - - - W 22 24 12 13 - - -
22/08:30am - - - - - W 17 20 9 11 - - -
22/08:00am - - - - - W 19 22 10 12 - - -
22/07:30am - - - - - W 15 19 8 10 - - -
22/07:00am - - - - - W 15 20 8 11 - - -
22/06:30am - - - - - W 20 24 11 13 - - -
22/06:00am - - - - - W 19 22 10 12 - - -
22/05:30am - - - - - W 13 17 7 9 - - -
22/05:00am - - - - - W 17 19 9 10 - - -
22/04:30am - - - - - W 13 17 7 9 - - -
22/04:00am - - - - - WNW 11 13 6 7 - - -
22/03:30am - - - - - WNW 11 15 6 8 - - -
22/03:00am - - - - - W 11 15 6 8 - - -
22/02:30am - - - - - W 13 15 7 8 - - -
22/02:00am - - - - - W 15 17 8 9 - - -
22/01:30am - - - - - W 13 15 7 8 - - -
22/01:00am - - - - - W 17 19 9 10 - - -
22/12:30am - - - - - W 17 19 9 10 - - -
22/12:00am - - - - - W 15 17 8 9 - - -
 
Date/Time
EST
Temp
°C
App
Temp
°C
Dew
Point
Rel
Hum
%
Delta-T
°C
Wind Press
QNH
hPa
Press
MSL
hPa
Rain
since 9 am
mm
Dir
 
Spd
km/h
Gust
km/h
Spd
kts
Gust
kts
21/11:30pm - - - - - WNW 13 15 7 8 - - -
21/11:00pm - - - - - W 17 19 9 10 - - -
21/10:30pm - - - - - W 13 15 7 8 - - -
21/10:00pm - - - - - W 6 9 3 5 - - -
21/09:30pm - - - - - ENE 7 11 4 6 - - -
21/09:00pm - - - - - W 7 9 4 5 - - -
21/08:30pm - - - - - NNW 6 7 3 4 - - -
21/08:00pm - - - - - NW 2 4 1 2 - - -
21/07:30pm - - - - - CALM 0 4 0 2 - - -
21/07:00pm - - - - - SSE 4 6 2 3 - - -
21/06:30pm - - - - - SSE 7 9 4 5 - - -
21/06:00pm - - - - - S 6 9 3 5 - - -
21/05:30pm - - - - - S 9 13 5 7 - - -
21/05:00pm - - - - - SSE 6 9 3 5 - - -
21/04:30pm - - - - - SSE 11 15 6 8 - - -
21/04:00pm - - - - - SSE 11 15 6 8 - - -
21/03:30pm - - - - - SE 13 19 7 10 - - -
21/03:00pm - - - - - SSE 17 20 9 11 - - -
21/02:30pm - - - - - SSE 15 20 8 11 - - -
21/02:00pm - - - - - SSE 20 24 11 13 - - -
21/01:30pm - - - - - SSE 19 24 10 13 - - -
21/01:00pm - - - - - S 9 15 5 8 - - -
21/12:30pm - - - - - WSW 4 6 2 3 - - -
21/12:00pm - - - - - W 11 13 6 7 - - -
21/11:30am - - - - - W 13 15 7 8 - - -
21/11:00am - - - - - WNW 15 17 8 9 - - -
21/10:30am - - - - - W 20 24 11 13 - - -
21/10:00am - - - - - WNW 22 24 12 13 - - -
21/09:30am - - - - - W 19 22 10 12 - - -
21/09:00am - - - - - W 22 26 12 14 - - -
21/08:30am - - - - - W 20 24 11 13 - - -
21/08:00am - - - - - W 20 24 11 13 - - -
21/07:30am - - - - - W 20 28 11 15 - - -
21/07:00am - - - - - W 20 24 11 13 - - -
21/06:30am - - - - - W 19 22 10 12 - - -
21/06:00am - - - - - W 19 24 10 13 - - -
21/05:30am - - - - - W 22 26 12 14 - - -
21/05:00am - - - - - W 24 30 13 16 - - -
21/04:30am - - - - - W 24 28 13 15 - - -
21/04:00am - - - - - W 20 26 11 14 - - -
21/03:30am - - - - - W 17 20 9 11 - - -
21/03:00am - - - - - W 19 20 10 11 - - -
21/02:30am - - - - - W 19 22 10 12 - - -
21/02:00am - - - - - W 19 22 10 12 - - -
21/01:30am - - - - - W 17 20 9 11 - - -
21/01:00am - - - - - W 19 22 10 12 - - -
21/12:30am - - - - - W 17 22 9 12 - - -
21/12:00am - - - - - W 19 20 10 11 - - -
 
Date/Time
EST
Temp
°C
App
Temp
°C
Dew
Point
Rel
Hum
%
Delta-T
°C
Wind Press
QNH
hPa
Press
MSL
hPa
Rain
since 9 am
mm
Dir
 
Spd
km/h
Gust
km/h
Spd
kts
Gust
kts
20/11:30pm - - - - - W 17 20 9 11 - - -
20/11:00pm - - - - - W 17 20 9 11 - - -
20/10:30pm - - - - - WNW 17 20 9 11 - - -
20/10:00pm - - - - - W 13 17 7 9 - - -
20/09:30pm - - - - - SSW 9 13 5 7 - - -
20/09:00pm - - - - - S 7 11 4 6 - - -
20/08:30pm - - - - - S 7 11 4 6 - - -
20/08:00pm - - - - - S 11 17 6 9 - - -
20/07:30pm - - - - - S 13 15 7 8 - - -
20/07:00pm - - - - - S 13 17 7 9 - - -
20/06:30pm - - - - - S 13 19 7 10 - - -
20/06:00pm - - - - - SSE 11 15 6 8 - - -
20/05:30pm - - - - - S 15 22 8 12 - - -
20/05:00pm - - - - - S 13 24 7 13 - - -
20/04:30pm - - - - - S 19 28 10 15 - - -
20/04:00pm - - - - - S 20 33 11 18 - - -
20/03:30pm - - - - - S 24 37 13 20 - - -
20/03:00pm - - - - - S 22 33 12 18 - - -
20/02:30pm - - - - - S 24 41 13 22 - - -
20/02:00pm - - - - - S 24 39 13 21 - - -
20/01:30pm - - - - - S 24 37 13 20 - - -
20/01:00pm - - - - - SSW 26 43 14 23 - - -
20/12:30pm - - - - - SSW 20 33 11 18 - - -
20/12:00pm - - - - - SSW 24 37 13 20 - - -
20/11:30am - - - - - SSW 24 43 13 23 - - -
20/11:00am - - - - - SSW 28 43 15 23 - - -
20/10:30am - - - - - SSW 24 37 13 20 - - -
20/10:00am - - - - - SSW 22 39 12 21 - - -
20/09:30am - - - - - W 20 30 11 16 - - -
20/09:00am - - - - - W 20 28 11 15 - - -
20/08:30am - - - - - W 20 26 11 14 - - -
20/08:00am - - - - - W 24 32 13 17 - - -
20/07:30am - - - - - W 22 32 12 17 - - -
20/07:00am - - - - - W 22 28 12 15 - - -
20/06:30am - - - - - W 20 26 11 14 - - -
20/06:00am - - - - - W 20 28 11 15 - - -
20/05:30am - - - - - W 17 22 9 12 - - -
20/05:00am - - - - - SSW 19 30 10 16 - - -
20/04:30am - - - - - WSW 13 28 7 15 - - -
20/04:00am - - - - - SW 22 32 12 17 - - -
20/03:30am - - - - - SW 22 44 12 24 - - -
20/03:00am - - - - - SW 24 39 13 21 - - -
20/02:30am - - - - - SSW 20 33 11 18 - - -
20/02:00am - - - - - SSW 24 54 13 29 - - -
20/01:46am - - - - - SSW 28 50 15 27 - - -
20/01:30am - - - - - SSW 22 37 12 20 - - -
20/01:00am - - - - - SSW 20 39 11 21 - - -
20/12:30am - - - - - SW 20 35 11 19 - - -
20/12:00am - - - - - SW 20 44 11 24 - - -
 
Date/Time
EST
Temp
°C
App
Temp
°C
Dew
Point
Rel
Hum
%
Delta-T
°C
Wind Press
QNH
hPa
Press
MSL
hPa
Rain
since 9 am
mm
Dir
 
Spd
km/h
Gust
km/h
Spd
kts
Gust
kts
19/11:30pm - - - - - SSW 24 41 13 22 - - -
19/11:00pm - - - - - SW 22 37 12 20 - - -
19/10:30pm - - - - - SSW 22 37 12 20 - - -
19/10:00pm - - - - - SSW 28 43 15 23 - - -
19/09:30pm - - - - - SW 19 35 10 19 - - -
19/09:00pm - - - - - SW 19 28 10 15 - - -
19/08:30pm - - - - - SW 19 30 10 16 - - -
19/08:00pm - - - - - SSW 20 44 11 24 - - -
19/07:30pm - - - - - SW 22 41 12 22 - - -
19/07:00pm - - - - - SSW 22 32 12 17 - - -
19/06:30pm - - - - - SSW 24 43 13 23 - - -
19/06:00pm - - - - - SW 17 33 9 18 - - -
19/05:30pm - - - - - S 9 13 5 7 - - -

Other Formats:

Comma delimited format used in spreadsheet applications
http://www.bom.gov.au/fwo/IDN60801/IDN60801.94769.axf

JavaScript Object Notation format (JSON) in row-major order
http://www.bom.gov.au/fwo/IDN60801/IDN60801.94769.json